sensor_id;sensor_type;location;lat;lon;timestamp;pressure;altitude;pressure_sealevel;temperature;humidity
10668;BME280;5382;42.136;24.796;2023-06-26T00:00:54;99388.84;;;23.90;100.00
10668;BME280;5382;42.136;24.796;2023-06-26T00:03:21;99370.78;;;23.91;100.00
10668;BME280;5382;42.136;24.796;2023-06-26T00:05:48;99378.25;;;23.89;100.00
10668;BME280;5382;42.136;24.796;2023-06-26T00:08:16;99391.75;;;23.89;100.00
10668;BME280;5382;42.136;24.796;2023-06-26T00:10:42;99365.38;;;23.91;100.00
10668;BME280;5382;42.136;24.796;2023-06-26T00:13:09;99375.97;;;23.86;100.00
10668;BME280;5382;42.136;24.796;2023-06-26T00:15:38;99374.91;;;23.87;100.00
10668;BME280;5382;42.136;24.796;2023-06-26T00:18:07;99373.03;;;23.87;100.00
10668;BME280;5382;42.136;24.796;2023-06-26T00:20:34;99383.44;;;23.84;100.00
10668;BME280;5382;42.136;24.796;2023-06-26T00:23:00;99373.47;;;23.84;100.00
10668;BME280;5382;42.136;24.796;2023-06-26T00:25:29;99379.50;;;23.80;100.00
10668;BME280;5382;42.136;24.796;2023-06-26T00:27:56;99382.41;;;23.78;100.00
10668;BME280;5382;42.136;24.796;2023-06-26T00:30:23;99390.28;;;23.66;100.00
10668;BME280;5382;42.136;24.796;2023-06-26T00:32:49;99380.94;;;23.62;100.00
10668;BME280;5382;42.136;24.796;2023-06-26T00:35:18;99380.31;;;23.60;100.00
10668;BME280;5382;42.136;24.796;2023-06-26T00:37:45;99391.13;;;23.60;100.00
10668;BME280;5382;42.136;24.796;2023-06-26T00:40:12;99384.47;;;23.56;100.00
10668;BME280;5382;42.136;24.796;2023-06-26T00:42:39;99373.88;;;23.55;100.00
10668;BME280;5382;42.136;24.796;2023-06-26T00:45:06;99380.75;;;23.57;100.00
10668;BME280;5382;42.136;24.796;2023-06-26T00:47:34;99383.41;;;23.50;100.00
10668;BME280;5382;42.136;24.796;2023-06-26T00:50:01;99381.13;;;23.54;100.00
10668;BME280;5382;42.136;24.796;2023-06-26T00:52:30;99383.22;;;23.52;100.00
10668;BME280;5382;42.136;24.796;2023-06-26T00:54:57;99374.91;;;23.40;100.00
10668;BME280;5382;42.136;24.796;2023-06-26T00:57:24;99384.44;;;23.36;100.00
10668;BME280;5382;42.136;24.796;2023-06-26T00:59:51;99369.69;;;23.32;100.00
10668;BME280;5382;42.136;24.796;2023-06-26T01:02:18;99380.91;;;23.29;100.00
10668;BME280;5382;42.136;24.796;2023-06-26T01:04:46;99375.09;;;23.25;100.00
10668;BME280;5382;42.136;24.796;2023-06-26T01:07:15;99369.69;;;23.19;100.00
10668;BME280;5382;42.136;24.796;2023-06-26T01:09:46;99369.88;;;23.17;100.00
10668;BME280;5382;42.136;24.796;2023-06-26T01:12:14;99369.25;;;23.15;100.00
10668;BME280;5382;42.136;24.796;2023-06-26T01:14:41;99342.84;;;22.97;100.00
10668;BME280;5382;42.136;24.796;2023-06-26T01:17:09;99366.34;;;23.10;100.00
10668;BME280;5382;42.136;24.796;2023-06-26T01:19:37;99365.31;;;23.11;100.00
10668;BME280;5382;42.136;24.796;2023-06-26T01:22:12;99366.97;;;23.12;100.00
10668;BME280;5382;42.136;24.796;2023-06-26T01:24:47;99361.56;;;23.12;100.00
10668;BME280;5382;42.136;24.796;2023-06-26T01:27:22;99354.94;;;23.08;100.00
10668;BME280;5382;42.136;24.796;2023-06-26T01:29:51;99357.00;;;23.06;100.00
10668;BME280;5382;42.136;24.796;2023-06-26T01:32:18;99349.94;;;23.05;100.00
10668;BME280;5382;42.136;24.796;2023-06-26T01:34:45;99347.44;;;23.03;100.00
10668;BME280;5382;42.136;24.796;2023-06-26T01:37:12;99340.78;;;22.99;100.00
10668;BME280;5382;42.136;24.796;2023-06-26T01:39:39;99352.22;;;23.01;100.00
10668;BME280;5382;42.136;24.796;2023-06-26T01:42:06;99351.59;;;23.06;100.00
10668;BME280;5382;42.136;24.796;2023-06-26T01:44:37;99352.63;;;23.05;100.00
10668;BME280;5382;42.136;24.796;2023-06-26T01:47:06;99352.44;;;23.06;100.00
10668;BME280;5382;42.136;24.796;2023-06-26T01:49:43;99349.09;;;23.04;100.00
10668;BME280;5382;42.136;24.796;2023-06-26T01:52:19;99350.16;;;23.03;100.00
10668;BME280;5382;42.136;24.796;2023-06-26T01:54:54;99330.75;;;22.86;100.00
10668;BME280;5382;42.136;24.796;2023-06-26T01:57:22;99338.47;;;22.96;100.00
10668;BME280;5382;42.136;24.796;2023-06-26T01:59:54;99347.63;;;23.02;100.00
10668;BME280;5382;42.136;24.796;2023-06-26T02:02:23;99343.28;;;23.01;100.00
10668;BME280;5382;42.136;24.796;2023-06-26T02:04:50;99352.41;;;23.00;100.00
10668;BME280;5382;42.136;24.796;2023-06-26T02:07:17;99348.63;;;22.88;100.00
10668;BME280;5382;42.136;24.796;2023-06-26T02:09:44;99349.22;;;22.90;100.00
10668;BME280;5382;42.136;24.796;2023-06-26T02:12:10;99366.06;;;22.85;100.00
10668;BME280;5382;42.136;24.796;2023-06-26T02:14:37;99358.19;;;22.90;100.00
10668;BME280;5382;42.136;24.796;2023-06-26T02:17:05;99349.88;;;22.92;100.00
10668;BME280;5382;42.136;24.796;2023-06-26T02:19:34;99355.91;;;22.94;100.00
10668;BME280;5382;42.136;24.796;2023-06-26T02:22:00;99355.72;;;22.95;100.00
10668;BME280;5382;42.136;24.796;2023-06-26T02:24:27;99351.31;;;22.94;100.00
10668;BME280;5382;42.136;24.796;2023-06-26T02:26:55;99360.50;;;23.00;100.00
10668;BME280;5382;42.136;24.796;2023-06-26T02:29:22;99354.91;;;23.01;100.00
10668;BME280;5382;42.136;24.796;2023-06-26T02:31:49;99356.16;;;22.99;100.00
10668;BME280;5382;42.136;24.796;2023-06-26T02:34:17;99354.72;;;23.03;100.00
10668;BME280;5382;42.136;24.796;2023-06-26T02:36:44;99347.00;;;23.00;100.00
10668;BME280;5382;42.136;24.796;2023-06-26T02:39:11;99349.50;;;23.01;100.00
10668;BME280;5382;42.136;24.796;2023-06-26T02:41:37;99351.38;;;23.01;100.00
10668;BME280;5382;42.136;24.796;2023-06-26T02:44:04;99349.25;;;22.96;100.00
10668;BME280;5382;42.136;24.796;2023-06-26T02:46:31;99350.56;;;23.00;100.00
10668;BME280;5382;42.136;24.796;2023-06-26T02:48:58;99351.97;;;22.96;100.00
10668;BME280;5382;42.136;24.796;2023-06-26T02:51:27;99351.81;;;22.98;100.00
10668;BME280;5382;42.136;24.796;2023-06-26T02:53:54;99345.56;;;23.04;100.00
10668;BME280;5382;42.136;24.796;2023-06-26T02:56:21;99345.16;;;23.00;100.00
10668;BME280;5382;42.136;24.796;2023-06-26T02:58:47;99342.41;;;22.94;100.00
10668;BME280;5382;42.136;24.796;2023-06-26T03:01:14;99349.88;;;22.92;100.00
10668;BME280;5382;42.136;24.796;2023-06-26T03:03:41;99351.53;;;22.93;100.00
10668;BME280;5382;42.136;24.796;2023-06-26T03:06:08;99349.88;;;22.92;100.00
10668;BME280;5382;42.136;24.796;2023-06-26T03:08:37;99354.66;;;22.96;100.00
10668;BME280;5382;42.136;24.796;2023-06-26T03:11:04;99355.72;;;22.95;100.00
10668;BME280;5382;42.136;24.796;2023-06-26T03:13:32;99360.25;;;22.95;100.00
10668;BME280;5382;42.136;24.796;2023-06-26T03:15:59;99365.44;;;22.96;100.00
10668;BME280;5382;42.136;24.796;2023-06-26T03:18:26;99361.72;;;22.97;100.00
10668;BME280;5382;42.136;24.796;2023-06-26T03:20:53;99355.50;;;22.90;100.00
10668;BME280;5382;42.136;24.796;2023-06-26T03:23:20;99349.03;;;22.91;100.00
10668;BME280;5382;42.136;24.796;2023-06-26T03:25:51;99368.22;;;23.03;100.00
10668;BME280;5382;42.136;24.796;2023-06-26T03:28:18;99374.00;;;23.00;100.00
10668;BME280;5382;42.136;24.796;2023-06-26T03:30:45;99359.47;;;23.01;100.00
10668;BME280;5382;42.136;24.796;2023-06-26T03:33:12;99342.19;;;22.89;100.00
10668;BME280;5382;42.136;24.796;2023-06-26T03:35:39;99374.00;;;23.00;100.00
10668;BME280;5382;42.136;24.796;2023-06-26T03:38:06;99369.22;;;23.02;100.00
10668;BME280;5382;42.136;24.796;2023-06-26T03:40:32;99370.28;;;23.01;100.00
10668;BME280;5382;42.136;24.796;2023-06-26T03:43:00;99369.84;;;23.04;100.00
10668;BME280;5382;42.136;24.796;2023-06-26T03:45:28;99370.09;;;23.09;100.00
10668;BME280;5382;42.136;24.796;2023-06-26T03:47:54;99382.34;;;23.12;100.00
10668;BME280;5382;42.136;24.796;2023-06-26T03:50:21;99367.38;;;23.09;100.00
10668;BME280;5382;42.136;24.796;2023-06-26T03:52:48;99365.72;;;23.08;100.00
10668;BME280;5382;42.136;24.796;2023-06-26T03:55:17;99369.25;;;23.15;100.00
10668;BME280;5382;42.136;24.796;2023-06-26T03:57:48;99349.53;;;23.08;100.00
10668;BME280;5382;42.136;24.796;2023-06-26T04:00:17;99366.16;;;23.18;100.00
10668;BME280;5382;42.136;24.796;2023-06-26T04:02:43;99361.16;;;23.15;100.00
10668;BME280;5382;42.136;24.796;2023-06-26T04:05:10;99346.63;;;23.10;100.00
10668;BME280;5382;42.136;24.796;2023-06-26T04:07:37;99368.84;;;23.25;100.00
10668;BME280;5382;42.136;24.796;2023-06-26T04:10:05;99362.22;;;23.27;100.00
10668;BME280;5382;42.136;24.796;2023-06-26T04:12:32;99363.69;;;23.37;100.00
10668;BME280;5382;42.136;24.796;2023-06-26T04:14:59;99375.31;;;23.44;100.00
10668;BME280;5382;42.136;24.796;2023-06-26T04:17:27;99361.00;;;23.50;100.00
10668;BME280;5382;42.136;24.796;2023-06-26T04:19:53;99352.69;;;23.58;100.00
10668;BME280;5382;42.136;24.796;2023-06-26T04:22:20;99355.38;;;23.58;100.00
10668;BME280;5382;42.136;24.796;2023-06-26T04:24:47;99350.16;;;23.57;100.00
10668;BME280;5382;42.136;24.796;2023-06-26T04:27:14;99351.22;;;23.62;100.00
10668;BME280;5382;42.136;24.796;2023-06-26T04:29:42;99362.84;;;23.69;100.00
10668;BME280;5382;42.136;24.796;2023-06-26T04:32:09;99365.16;;;23.79;100.00
10668;BME280;5382;42.136;24.796;2023-06-26T04:34:37;99360.78;;;23.85;100.00
10668;BME280;5382;42.136;24.796;2023-06-26T04:37:06;99361.19;;;23.95;100.00
10668;BME280;5382;42.136;24.796;2023-06-26T04:39:35;99365.38;;;23.91;100.00
10668;BME280;5382;42.136;24.796;2023-06-26T04:42:04;99363.25;;;23.93;100.00
10668;BME280;5382;42.136;24.796;2023-06-26T04:44:32;99369.28;;;24.02;100.00
10668;BME280;5382;42.136;24.796;2023-06-26T04:46:58;99372.81;;;24.02;100.00
10668;BME280;5382;42.136;24.796;2023-06-26T04:49:25;99374.47;;;24.03;100.00
10668;BME280;5382;42.136;24.796;2023-06-26T04:51:54;99381.56;;;24.04;100.00
10668;BME280;5382;42.136;24.796;2023-06-26T04:54:21;99382.19;;;24.00;100.00
10668;BME280;5382;42.136;24.796;2023-06-26T04:56:48;99389.03;;;23.95;100.00
10668;BME280;5382;42.136;24.796;2023-06-26T04:59:15;99390.47;;;23.98;100.00
10668;BME280;5382;42.136;24.796;2023-06-26T05:01:42;99392.16;;;23.99;100.00
10668;BME280;5382;42.136;24.796;2023-06-26T05:04:13;99378.44;;;24.01;100.00
10668;BME280;5382;42.136;24.796;2023-06-26T05:06:40;99393.38;;;24.10;100.00
10668;BME280;5382;42.136;24.796;2023-06-26T05:09:08;99400.03;;;24.21;100.00
10668;BME280;5382;42.136;24.796;2023-06-26T05:11:36;99395.25;;;24.29;100.00
10668;BME280;5382;42.136;24.796;2023-06-26T05:14:03;99408.97;;;24.28;100.00
10668;BME280;5382;42.136;24.796;2023-06-26T05:16:32;99414.56;;;24.26;100.00
10668;BME280;5382;42.136;24.796;2023-06-26T05:18:59;99406.88;;;24.30;100.00
10668;BME280;5382;42.136;24.796;2023-06-26T05:21:26;99414.97;;;24.36;100.00
10668;BME280;5382;42.136;24.796;2023-06-26T05:23:56;99421.19;;;24.44;100.00
10668;BME280;5382;42.136;24.796;2023-06-26T05:26:25;99423.72;;;24.45;100.00
10668;BME280;5382;42.136;24.796;2023-06-26T05:28:53;99416.00;;;24.35;100.00
10668;BME280;5382;42.136;24.796;2023-06-26T05:31:20;99419.13;;;24.39;100.00
10668;BME280;5382;42.136;24.796;2023-06-26T05:33:48;99414.94;;;24.43;100.00
10668;BME280;5382;42.136;24.796;2023-06-26T05:36:16;99435.34;;;24.52;100.00
10668;BME280;5382;42.136;24.796;2023-06-26T05:38:45;99429.72;;;24.47;100.00
10668;BME280;5382;42.136;24.796;2023-06-26T05:41:12;99424.50;;;24.59;100.00
10668;BME280;5382;42.136;24.796;2023-06-26T05:43:40;99420.72;;;24.67;100.00
10668;BME280;5382;42.136;24.796;2023-06-26T05:46:07;99431.09;;;24.76;100.00
10668;BME280;5382;42.136;24.796;2023-06-26T05:48:34;99426.09;;;24.80;100.00
10668;BME280;5382;42.136;24.796;2023-06-26T05:51:01;99426.69;;;24.89;100.00
10668;BME280;5382;42.136;24.796;2023-06-26T05:53:30;99413.84;;;24.71;100.00
10668;BME280;5382;42.136;24.796;2023-06-26T05:55:57;99425.09;;;24.68;100.00
10668;BME280;5382;42.136;24.796;2023-06-26T05:58:26;99418.38;;;24.84;100.00
10668;BME280;5382;42.136;24.796;2023-06-26T06:00:55;99387.00;;;24.76;100.00
10668;BME280;5382;42.136;24.796;2023-06-26T06:03:22;99408.75;;;24.94;100.00
10668;BME280;5382;42.136;24.796;2023-06-26T06:05:49;99418.69;;;25.07;100.00
10668;BME280;5382;42.136;24.796;2023-06-26T06:08:16;99429.53;;;25.00;100.00
10668;BME280;5382;42.136;24.796;2023-06-26T06:10:43;99423.91;;;25.02;100.00
10668;BME280;5382;42.136;24.796;2023-06-26T06:13:10;99420.03;;;24.91;100.00
10668;BME280;5382;42.136;24.796;2023-06-26T06:15:36;99436.03;;;24.93;100.00
10668;BME280;5382;42.136;24.796;2023-06-26T06:18:05;99413.78;;;24.84;100.00
10668;BME280;5382;42.136;24.796;2023-06-26T06:20:32;99431.22;;;24.95;100.00
10668;BME280;5382;42.136;24.796;2023-06-26T06:22:59;99436.25;;;24.91;100.00
10668;BME280;5382;42.136;24.796;2023-06-26T06:25:26;99432.88;;;24.96;100.00
10668;BME280;5382;42.136;24.796;2023-06-26T06:27:53;99428.09;;;24.98;100.00
10668;BME280;5382;42.136;24.796;2023-06-26T06:30:19;99407.69;;;24.95;100.00
10668;BME280;5382;42.136;24.796;2023-06-26T06:32:46;99434.88;;;25.14;100.00
10668;BME280;5382;42.136;24.796;2023-06-26T06:35:17;99429.41;;;25.27;100.00
10668;BME280;5382;42.136;24.796;2023-06-26T06:37:44;99426.16;;;25.18;100.00
10668;BME280;5382;42.136;24.796;2023-06-26T06:40:11;99425.06;;;25.26;100.00
10668;BME280;5382;42.136;24.796;2023-06-26T06:42:39;99420.06;;;25.23;100.00
10668;BME280;5382;42.136;24.796;2023-06-26T06:45:07;99430.47;;;25.26;100.00
10668;BME280;5382;42.136;24.796;2023-06-26T06:47:34;99429.22;;;25.29;100.00
10668;BME280;5382;42.136;24.796;2023-06-26T06:50:01;99424.34;;;25.37;100.00
10668;BME280;5382;42.136;24.796;2023-06-26T06:52:36;99428.84;;;25.50;100.00
10668;BME280;5382;42.136;24.796;2023-06-26T06:55:03;99442.03;;;25.40;100.00
10668;BME280;5382;42.136;24.796;2023-06-26T06:57:32;99443.31;;;25.37;100.00
10668;BME280;5382;42.136;24.796;2023-06-26T07:00:01;99430.63;;;25.38;100.00
10668;BME280;5382;42.136;24.796;2023-06-26T07:02:29;99429.53;;;25.45;100.00
10668;BME280;5382;42.136;24.796;2023-06-26T07:05:00;99434.03;;;25.58;100.00
10668;BME280;5382;42.136;24.796;2023-06-26T07:07:29;99428.97;;;25.62;100.00
10668;BME280;5382;42.136;24.796;2023-06-26T07:09:59;99440.94;;;25.79;100.00
10668;BME280;5382;42.136;24.796;2023-06-26T07:12:25;99434.25;;;25.82;100.00
10668;BME280;5382;42.136;24.796;2023-06-26T07:14:52;99423.41;;;26.07;100.00
10668;BME280;5382;42.136;24.796;2023-06-26T07:17:20;99421.94;;;26.11;100.00
10668;BME280;5382;42.136;24.796;2023-06-26T07:19:47;99419.28;;;26.23;100.00
10668;BME280;5382;42.136;24.796;2023-06-26T07:22:14;99422.44;;;26.20;100.00
10668;BME280;5382;42.136;24.796;2023-06-26T07:24:40;99425.09;;;26.26;100.00
10668;BME280;5382;42.136;24.796;2023-06-26T07:27:09;99426.84;;;26.39;100.00
10668;BME280;5382;42.136;24.796;2023-06-26T07:29:36;99419.47;;;26.46;100.00
10668;BME280;5382;42.136;24.796;2023-06-26T07:32:03;99416.25;;;26.56;100.00
10668;BME280;5382;42.136;24.796;2023-06-26T07:34:30;99415.13;;;26.64;100.00
10668;BME280;5382;42.136;24.796;2023-06-26T07:36:58;99420.44;;;26.89;100.00
10668;BME280;5382;42.136;24.796;2023-06-26T07:39:25;99416.53;;;27.03;100.00
10668;BME280;5382;42.136;24.796;2023-06-26T07:41:51;99415.81;;;27.08;100.00
10668;BME280;5382;42.136;24.796;2023-06-26T07:44:20;99418.09;;;27.11;100.00
10668;BME280;5382;42.136;24.796;2023-06-26T07:46:47;99417.38;;;27.15;100.00
10668;BME280;5382;42.136;24.796;2023-06-26T07:49:14;99416.53;;;27.33;100.00
10668;BME280;5382;42.136;24.796;2023-06-26T07:51:41;99417.47;;;27.39;100.00
10668;BME280;5382;42.136;24.796;2023-06-26T07:54:08;99408.63;;;27.32;100.00
10668;BME280;5382;42.136;24.796;2023-06-26T07:56:52;99407.28;;;27.23;100.00
10668;BME280;5382;42.136;24.796;2023-06-26T07:59:21;99409.94;;;27.41;100.00
10668;BME280;5382;42.136;24.796;2023-06-26T08:01:49;99394.97;;;27.50;100.00
10668;BME280;5382;42.136;24.796;2023-06-26T08:04:17;99418.91;;;27.95;100.00
10668;BME280;5382;42.136;24.796;2023-06-26T08:06:45;99424.47;;;28.12;100.00
10668;BME280;5382;42.136;24.796;2023-06-26T08:09:12;99416.19;;;28.31;100.00
10668;BME280;5382;42.136;24.796;2023-06-26T08:11:39;99411.09;;;28.46;100.00
10668;BME280;5382;42.136;24.796;2023-06-26T08:14:07;99424.38;;;28.07;100.00
10668;BME280;5382;42.136;24.796;2023-06-26T08:16:35;99418.97;;;27.65;100.00
10668;BME280;5382;42.136;24.796;2023-06-26T08:19:02;99411.63;;;27.54;100.00
10668;BME280;5382;42.136;24.796;2023-06-26T08:21:29;99420.59;;;27.54;100.00
10668;BME280;5382;42.136;24.796;2023-06-26T08:23:56;99412.78;;;27.46;100.00
10668;BME280;5382;42.136;24.796;2023-06-26T08:26:23;99420.94;;;27.46;100.00
10668;BME280;5382;42.136;24.796;2023-06-26T08:28:49;99421.03;;;27.39;100.00
10668;BME280;5382;42.136;24.796;2023-06-26T08:31:16;99424.72;;;27.45;100.00
10668;BME280;5382;42.136;24.796;2023-06-26T08:33:45;99425.47;;;27.22;100.00
10668;BME280;5382;42.136;24.796;2023-06-26T08:36:12;99434.81;;;26.59;100.00
10668;BME280;5382;42.136;24.796;2023-06-26T08:38:39;99429.78;;;26.38;100.00
10668;BME280;5382;42.136;24.796;2023-06-26T08:41:06;99431.13;;;25.85;100.00
10668;BME280;5382;42.136;24.796;2023-06-26T08:43:35;99430.81;;;25.68;100.00
10668;BME280;5382;42.136;24.796;2023-06-26T08:46:02;99433.75;;;25.66;100.00
10668;BME280;5382;42.136;24.796;2023-06-26T08:48:29;99427.47;;;25.66;100.00
10668;BME280;5382;42.136;24.796;2023-06-26T08:51:01;99420.69;;;25.57;100.00
10668;BME280;5382;42.136;24.796;2023-06-26T08:53:38;99419.03;;;25.81;100.00
10668;BME280;5382;42.136;24.796;2023-06-26T08:56:07;99410.91;;;26.06;100.00
10668;BME280;5382;42.136;24.796;2023-06-26T08:58:34;99409.00;;;26.31;100.00
10668;BME280;5382;42.136;24.796;2023-06-26T09:01:04;99401.84;;;26.56;100.00
10668;BME280;5382;42.136;24.796;2023-06-26T09:03:31;99400.91;;;26.98;100.00
10668;BME280;5382;42.136;24.796;2023-06-26T09:06:00;99403.53;;;27.35;100.00
10668;BME280;5382;42.136;24.796;2023-06-26T09:08:34;99403.84;;;27.57;100.00
10668;BME280;5382;42.136;24.796;2023-06-26T09:11:01;99393.59;;;27.95;100.00
10668;BME280;5382;42.136;24.796;2023-06-26T09:13:28;99391.94;;;28.29;100.00
10668;BME280;5382;42.136;24.796;2023-06-26T09:15:56;99391.44;;;28.56;100.00
10668;BME280;5382;42.136;24.796;2023-06-26T09:18:37;99397.47;;;28.58;100.00
10668;BME280;5382;42.136;24.796;2023-06-26T09:21:09;99386.69;;;28.63;100.00
10668;BME280;5382;42.136;24.796;2023-06-26T09:23:36;99389.78;;;28.95;100.00
10668;BME280;5382;42.136;24.796;2023-06-26T09:26:03;99390.78;;;29.34;100.00
10668;BME280;5382;42.136;24.796;2023-06-26T09:28:30;99383.88;;;29.61;100.00
10668;BME280;5382;42.136;24.796;2023-06-26T09:31:01;99385.97;;;29.70;97.41
10668;BME280;5382;42.136;24.796;2023-06-26T09:33:33;99368.13;;;29.80;95.95
10668;BME280;5382;42.136;24.796;2023-06-26T09:36:05;99387.75;;;29.98;92.66
10668;BME280;5382;42.136;24.796;2023-06-26T09:38:33;99354.66;;;29.90;98.85
10668;BME280;5382;42.136;24.796;2023-06-26T09:41:01;99385.03;;;29.31;100.00
10668;BME280;5382;42.136;24.796;2023-06-26T09:43:27;99394.31;;;28.37;100.00
10668;BME280;5382;42.136;24.796;2023-06-26T09:45:57;99401.91;;;28.12;100.00
10668;BME280;5382;42.136;24.796;2023-06-26T09:48:25;99403.25;;;27.67;100.00
10668;BME280;5382;42.136;24.796;2023-06-26T09:50:53;99405.91;;;27.32;100.00
10668;BME280;5382;42.136;24.796;2023-06-26T09:53:20;99416.09;;;27.36;100.00
10668;BME280;5382;42.136;24.796;2023-06-26T09:55:48;99410.00;;;27.04;100.00
10668;BME280;5382;42.136;24.796;2023-06-26T09:58:15;99404.53;;;26.92;100.00
10668;BME280;5382;42.136;24.796;2023-06-26T10:00:43;99408.84;;;26.82;100.00
10668;BME280;5382;42.136;24.796;2023-06-26T10:03:10;99363.88;;;26.56;100.00
10668;BME280;5382;42.136;24.796;2023-06-26T10:05:38;99413.75;;;26.73;100.00
10668;BME280;5382;42.136;24.796;2023-06-26T10:08:05;99412.19;;;26.65;100.00
10668;BME280;5382;42.136;24.796;2023-06-26T10:10:35;99407.13;;;26.69;100.00
10668;BME280;5382;42.136;24.796;2023-06-26T10:13:11;99402.31;;;26.71;100.00
10668;BME280;5382;42.136;24.796;2023-06-26T10:15:43;99391.09;;;26.67;100.00
10668;BME280;5382;42.136;24.796;2023-06-26T10:18:11;99392.81;;;26.80;100.00
10668;BME280;5382;42.136;24.796;2023-06-26T10:20:40;99392.81;;;26.80;100.00
10668;BME280;5382;42.136;24.796;2023-06-26T10:23:08;99400.19;;;26.73;100.00
10668;BME280;5382;42.136;24.796;2023-06-26T10:25:37;99390.25;;;26.97;100.00
10668;BME280;5382;42.136;24.796;2023-06-26T10:28:09;99380.59;;;27.19;100.00
10668;BME280;5382;42.136;24.796;2023-06-26T10:30:39;99377.66;;;27.21;100.00
10668;BME280;5382;42.136;24.796;2023-06-26T10:33:06;99377.53;;;27.28;100.00
10668;BME280;5382;42.136;24.796;2023-06-26T10:35:42;99370.63;;;27.67;100.00
10668;BME280;5382;42.136;24.796;2023-06-26T10:38:08;99371.75;;;28.01;100.00
10668;BME280;5382;42.136;24.796;2023-06-26T10:40:42;99369.81;;;28.25;100.00
10668;BME280;5382;42.136;24.796;2023-06-26T10:43:12;99367.69;;;28.27;100.00
10668;BME280;5382;42.136;24.796;2023-06-26T10:45:43;99352.66;;;28.48;100.00
10668;BME280;5382;42.136;24.796;2023-06-26T10:48:13;99358.91;;;28.89;100.00
10668;BME280;5382;42.136;24.796;2023-06-26T10:50:40;99360.00;;;29.51;100.00
10668;BME280;5382;42.136;24.796;2023-06-26T10:53:09;99345.06;;;30.09;100.00
10668;BME280;5382;42.136;24.796;2023-06-26T10:55:37;99349.38;;;30.88;100.00
10668;BME280;5382;42.136;24.796;2023-06-26T10:58:04;99348.88;;;31.50;99.99
10668;BME280;5382;42.136;24.796;2023-06-26T11:00:32;99355.25;;;31.93;93.94
10668;BME280;5382;42.136;24.796;2023-06-26T11:02:58;99349.78;;;31.93;93.88
10668;BME280;5382;42.136;24.796;2023-06-26T11:05:27;99356.19;;;31.77;90.55
10668;BME280;5382;42.136;24.796;2023-06-26T11:08:05;99348.69;;;31.30;94.18
10668;BME280;5382;42.136;24.796;2023-06-26T11:10:50;99350.31;;;31.31;100.00
10668;BME280;5382;42.136;24.796;2023-06-26T11:13:18;99340.72;;;31.28;100.00
10668;BME280;5382;42.136;24.796;2023-06-26T11:15:49;99333.75;;;31.38;100.00
10668;BME280;5382;42.136;24.796;2023-06-26T11:18:16;99341.94;;;31.38;100.00
10668;BME280;5382;42.136;24.796;2023-06-26T11:20:43;99353.34;;;31.62;100.00
10668;BME280;5382;42.136;24.796;2023-06-26T11:23:11;99349.09;;;31.44;100.00
10668;BME280;5382;42.136;24.796;2023-06-26T11:25:38;99345.34;;;31.50;100.00
10668;BME280;5382;42.136;24.796;2023-06-26T11:28:05;99344.59;;;31.65;100.00
10668;BME280;5382;42.136;24.796;2023-06-26T11:30:32;99338.00;;;31.56;100.00
10668;BME280;5382;42.136;24.796;2023-06-26T11:33:07;99340.94;;;31.49;100.00
10668;BME280;5382;42.136;24.796;2023-06-26T11:35:34;99340.34;;;31.42;100.00
10668;BME280;5382;42.136;24.796;2023-06-26T11:38:02;99340.97;;;30.95;100.00
10668;BME280;5382;42.136;24.796;2023-06-26T11:40:31;99342.97;;;30.55;100.00
10668;BME280;5382;42.136;24.796;2023-06-26T11:42:58;99336.44;;;30.17;100.00
10668;BME280;5382;42.136;24.796;2023-06-26T11:45:27;99334.22;;;29.75;100.00
10668;BME280;5382;42.136;24.796;2023-06-26T11:47:54;99340.19;;;29.39;100.00
10668;BME280;5382;42.136;24.796;2023-06-26T11:50:23;99339.66;;;29.25;100.00
10668;BME280;5382;42.136;24.796;2023-06-26T11:52:54;99334.88;;;29.32;100.00
10668;BME280;5382;42.136;24.796;2023-06-26T11:55:21;99336.34;;;29.06;100.00
10668;BME280;5382;42.136;24.796;2023-06-26T11:57:49;99325.44;;;29.06;100.00
10668;BME280;5382;42.136;24.796;2023-06-26T12:00:17;99326.69;;;29.32;100.00
10668;BME280;5382;42.136;24.796;2023-06-26T12:02:44;99319.84;;;29.46;100.00
10668;BME280;5382;42.136;24.796;2023-06-26T12:05:13;99324.88;;;29.71;100.00
10668;BME280;5382;42.136;24.796;2023-06-26T12:07:46;99331.97;;;30.28;100.00
10668;BME280;5382;42.136;24.796;2023-06-26T12:10:13;99333.94;;;30.33;100.00
10668;BME280;5382;42.136;24.796;2023-06-26T12:12:41;99335.78;;;30.71;100.00
10668;BME280;5382;42.136;24.796;2023-06-26T12:15:15;99344.63;;;31.05;100.00
10668;BME280;5382;42.136;24.796;2023-06-26T12:17:42;99329.88;;;31.06;100.00
10668;BME280;5382;42.136;24.796;2023-06-26T12:20:18;99333.00;;;31.20;100.00
10668;BME280;5382;42.136;24.796;2023-06-26T12:22:47;99341.88;;;31.65;100.00
10668;BME280;5382;42.136;24.796;2023-06-26T12:25:15;99341.38;;;32.10;95.71
10668;BME280;5382;42.136;24.796;2023-06-26T12:27:44;99339.53;;;32.26;86.05
10668;BME280;5382;42.136;24.796;2023-06-26T12:30:12;99340.47;;;32.52;85.51
10668;BME280;5382;42.136;24.796;2023-06-26T12:32:39;99352.38;;;32.94;76.33
10668;BME280;5382;42.136;24.796;2023-06-26T12:35:06;99361.47;;;32.36;83.70
10668;BME280;5382;42.136;24.796;2023-06-26T12:37:36;99356.47;;;32.18;88.37
10668;BME280;5382;42.136;24.796;2023-06-26T12:40:16;99364.34;;;31.72;97.54
10668;BME280;5382;42.136;24.796;2023-06-26T12:42:45;99374.06;;;31.53;93.29
10668;BME280;5382;42.136;24.796;2023-06-26T12:45:13;99372.69;;;30.96;98.41
10668;BME280;5382;42.136;24.796;2023-06-26T12:47:41;99374.66;;;30.56;100.00
10668;BME280;5382;42.136;24.796;2023-06-26T12:50:08;99353.47;;;29.52;100.00
10668;BME280;5382;42.136;24.796;2023-06-26T12:52:35;99361.09;;;29.04;100.00
10668;BME280;5382;42.136;24.796;2023-06-26T12:55:02;99371.22;;;28.52;100.00